Johnson, Arizona
Current Conditions -  °F | °C
As of 2:56 AM on Thursday 27 Nov 2014 (Local Time) from KFHU Reporting Station
Clear Clear  
Wind Chill: 50°   Ceiling: Unl
Heat Index: 50°   Visibility: 10mi
Dew Point: 21°   Wind: 5mph
Humidity: 32%   Direction: 160°SSE
Pressure: 30.32"   Gusts: NA
Location:  32.0129°N, 110.105°W
Report Text: KFHU 270956Z AUTO 16004KT 10SM CLR 10/M06 A3032 RMK AO2 SLP233 T01001061 $
Loading
Personal Weather Stations






























Interactive Weather Map New forecast layout! Learn more

10-Day Weather Forecast

Advertisements
Track Severe Weather on mobile